sensor_id;sensor_type;location;lat;lon;timestamp;P1;durP1;ratioP1;P2;durP2;ratioP2
21110;SDS011;10713;51.912;4.494;2023-06-22T00:01:58;15.65;;;7.85;;
21110;SDS011;10713;51.912;4.494;2023-06-22T00:04:24;18.23;;;8.23;;
21110;SDS011;10713;51.912;4.494;2023-06-22T00:06:50;18.63;;;6.63;;
21110;SDS011;10713;51.912;4.494;2023-06-22T00:09:15;17.30;;;7.43;;
21110;SDS011;10713;51.912;4.494;2023-06-22T00:11:41;19.73;;;7.05;;
21110;SDS011;10713;51.912;4.494;2023-06-22T00:14:06;19.70;;;7.57;;
21110;SDS011;10713;51.912;4.494;2023-06-22T00:16:32;17.80;;;6.60;;
21110;SDS011;10713;51.912;4.494;2023-06-22T00:18:58;13.02;;;6.25;;
21110;SDS011;10713;51.912;4.494;2023-06-22T00:21:25;15.98;;;6.88;;
21110;SDS011;10713;51.912;4.494;2023-06-22T00:23:54;14.02;;;7.00;;
21110;SDS011;10713;51.912;4.494;2023-06-22T00:26:19;16.35;;;7.00;;
21110;SDS011;10713;51.912;4.494;2023-06-22T00:28:45;14.30;;;6.75;;
21110;SDS011;10713;51.912;4.494;2023-06-22T00:31:11;12.52;;;6.00;;
21110;SDS011;10713;51.912;4.494;2023-06-22T00:33:36;13.00;;;6.30;;
21110;SDS011;10713;51.912;4.494;2023-06-22T00:36:02;9.93;;;5.20;;
21110;SDS011;10713;51.912;4.494;2023-06-22T00:38:28;12.43;;;5.35;;
21110;SDS011;10713;51.912;4.494;2023-06-22T00:40:54;17.05;;;6.70;;
21110;SDS011;10713;51.912;4.494;2023-06-22T00:43:19;11.98;;;5.18;;
21110;SDS011;10713;51.912;4.494;2023-06-22T00:45:45;9.82;;;5.78;;
21110;SDS011;10713;51.912;4.494;2023-06-22T00:48:10;9.20;;;4.68;;
21110;SDS011;10713;51.912;4.494;2023-06-22T00:50:37;11.90;;;5.95;;
21110;SDS011;10713;51.912;4.494;2023-06-22T00:53:03;10.82;;;5.93;;
21110;SDS011;10713;51.912;4.494;2023-06-22T00:55:36;13.45;;;6.32;;
21110;SDS011;10713;51.912;4.494;2023-06-22T00:58:04;10.57;;;4.82;;
21110;SDS011;10713;51.912;4.494;2023-06-22T01:00:35;13.57;;;5.75;;
21110;SDS011;10713;51.912;4.494;2023-06-22T01:03:01;10.50;;;5.72;;
21110;SDS011;10713;51.912;4.494;2023-06-22T01:05:27;10.05;;;4.95;;
21110;SDS011;10713;51.912;4.494;2023-06-22T01:13:25;14.75;;;5.63;;
21110;SDS011;10713;51.912;4.494;2023-06-22T01:16:17;10.95;;;5.22;;
21110;SDS011;10713;51.912;4.494;2023-06-22T01:18:48;12.50;;;6.13;;
21110;SDS011;10713;51.912;4.494;2023-06-22T01:21:18;15.00;;;6.00;;
21110;SDS011;10713;51.912;4.494;2023-06-22T01:29:25;11.13;;;5.47;;
21110;SDS011;10713;51.912;4.494;2023-06-22T01:31:52;14.48;;;6.68;;
21110;SDS011;10713;51.912;4.494;2023-06-22T01:34:19;16.33;;;6.45;;
21110;SDS011;10713;51.912;4.494;2023-06-22T01:36:46;18.80;;;7.00;;
21110;SDS011;10713;51.912;4.494;2023-06-22T01:39:12;14.45;;;6.15;;
21110;SDS011;10713;51.912;4.494;2023-06-22T01:41:38;15.30;;;8.00;;
21110;SDS011;10713;51.912;4.494;2023-06-22T01:44:05;17.27;;;6.53;;
21110;SDS011;10713;51.912;4.494;2023-06-22T01:46:34;13.85;;;6.80;;
21110;SDS011;10713;51.912;4.494;2023-06-22T01:49:02;15.40;;;7.45;;
21110;SDS011;10713;51.912;4.494;2023-06-22T01:51:29;20.98;;;7.50;;
21110;SDS011;10713;51.912;4.494;2023-06-22T01:53:54;13.85;;;6.63;;
21110;SDS011;10713;51.912;4.494;2023-06-22T01:56:19;18.65;;;7.97;;
21110;SDS011;10713;51.912;4.494;2023-06-22T01:58:48;16.23;;;7.75;;
21110;SDS011;10713;51.912;4.494;2023-06-22T02:01:20;19.73;;;7.95;;
21110;SDS011;10713;51.912;4.494;2023-06-22T02:04:26;19.40;;;7.75;;
21110;SDS011;10713;51.912;4.494;2023-06-22T02:06:46;18.42;;;8.30;;
21110;SDS011;10713;51.912;4.494;2023-06-22T02:09:16;20.52;;;9.45;;
21110;SDS011;10713;51.912;4.494;2023-06-22T02:11:45;22.60;;;8.68;;
21110;SDS011;10713;51.912;4.494;2023-06-22T02:14:13;21.40;;;7.63;;
21110;SDS011;10713;51.912;4.494;2023-06-22T02:16:38;21.67;;;10.32;;
21110;SDS011;10713;51.912;4.494;2023-06-22T02:19:05;21.40;;;8.88;;
21110;SDS011;10713;51.912;4.494;2023-06-22T02:21:31;19.02;;;8.55;;
21110;SDS011;10713;51.912;4.494;2023-06-22T02:23:57;16.17;;;7.30;;
21110;SDS011;10713;51.912;4.494;2023-06-22T02:26:22;27.15;;;10.85;;
21110;SDS011;10713;51.912;4.494;2023-06-22T02:28:49;22.85;;;10.30;;
21110;SDS011;10713;51.912;4.494;2023-06-22T02:31:15;28.15;;;10.80;;
21110;SDS011;10713;51.912;4.494;2023-06-22T02:33:41;20.52;;;9.98;;
21110;SDS011;10713;51.912;4.494;2023-06-22T02:36:06;18.33;;;9.20;;
21110;SDS011;10713;51.912;4.494;2023-06-22T02:38:33;19.00;;;8.85;;
21110;SDS011;10713;51.912;4.494;2023-06-22T02:41:01;22.63;;;9.85;;
21110;SDS011;10713;51.912;4.494;2023-06-22T02:43:27;24.20;;;11.30;;
21110;SDS011;10713;51.912;4.494;2023-06-22T02:45:52;22.25;;;10.18;;
21110;SDS011;10713;51.912;4.494;2023-06-22T02:48:18;25.45;;;10.65;;
21110;SDS011;10713;51.912;4.494;2023-06-22T02:50:43;20.75;;;9.27;;
21110;SDS011;10713;51.912;4.494;2023-06-22T02:53:09;24.17;;;9.98;;
21110;SDS011;10713;51.912;4.494;2023-06-22T02:55:34;28.17;;;11.75;;
21110;SDS011;10713;51.912;4.494;2023-06-22T02:57:59;26.33;;;11.02;;
21110;SDS011;10713;51.912;4.494;2023-06-22T03:00:29;32.10;;;11.32;;
21110;SDS011;10713;51.912;4.494;2023-06-22T03:02:55;27.58;;;11.50;;
21110;SDS011;10713;51.912;4.494;2023-06-22T03:05:21;29.33;;;12.23;;
21110;SDS011;10713;51.912;4.494;2023-06-22T03:07:46;32.80;;;12.93;;
21110;SDS011;10713;51.912;4.494;2023-06-22T03:10:12;22.55;;;9.38;;
21110;SDS011;10713;51.912;4.494;2023-06-22T03:12:39;28.23;;;10.60;;
21110;SDS011;10713;51.912;4.494;2023-06-22T03:15:05;26.13;;;10.85;;
21110;SDS011;10713;51.912;4.494;2023-06-22T03:17:32;31.38;;;12.55;;
21110;SDS011;10713;51.912;4.494;2023-06-22T03:19:58;24.60;;;10.38;;
21110;SDS011;10713;51.912;4.494;2023-06-22T03:22:23;28.63;;;11.65;;
21110;SDS011;10713;51.912;4.494;2023-06-22T03:24:49;25.92;;;10.55;;
21110;SDS011;10713;51.912;4.494;2023-06-22T03:27:14;30.58;;;11.35;;
21110;SDS011;10713;51.912;4.494;2023-06-22T03:29:39;26.10;;;11.18;;
21110;SDS011;10713;51.912;4.494;2023-06-22T03:32:05;28.63;;;11.68;;
21110;SDS011;10713;51.912;4.494;2023-06-22T03:34:31;32.42;;;12.27;;
21110;SDS011;10713;51.912;4.494;2023-06-22T03:36:58;21.13;;;9.38;;
21110;SDS011;10713;51.912;4.494;2023-06-22T03:39:24;19.83;;;9.35;;
21110;SDS011;10713;51.912;4.494;2023-06-22T03:41:49;26.00;;;11.05;;
21110;SDS011;10713;51.912;4.494;2023-06-22T03:44:15;30.98;;;12.60;;
21110;SDS011;10713;51.912;4.494;2023-06-22T03:46:40;28.88;;;11.48;;
21110;SDS011;10713;51.912;4.494;2023-06-22T03:49:06;30.13;;;12.88;;
21110;SDS011;10713;51.912;4.494;2023-06-22T03:51:32;26.40;;;12.23;;
21110;SDS011;10713;51.912;4.494;2023-06-22T03:53:57;30.05;;;12.43;;
21110;SDS011;10713;51.912;4.494;2023-06-22T03:56:23;31.35;;;13.30;;
21110;SDS011;10713;51.912;4.494;2023-06-22T03:58:48;31.23;;;13.07;;
21110;SDS011;10713;51.912;4.494;2023-06-22T04:01:13;32.05;;;11.80;;
21110;SDS011;10713;51.912;4.494;2023-06-22T04:03:39;31.85;;;13.23;;
21110;SDS011;10713;51.912;4.494;2023-06-22T04:06:05;25.65;;;10.85;;
21110;SDS011;10713;51.912;4.494;2023-06-22T04:08:31;34.00;;;12.45;;
21110;SDS011;10713;51.912;4.494;2023-06-22T04:10:56;27.40;;;12.75;;
21110;SDS011;10713;51.912;4.494;2023-06-22T04:13:21;23.48;;;11.15;;
21110;SDS011;10713;51.912;4.494;2023-06-22T04:15:47;26.55;;;12.23;;
21110;SDS011;10713;51.912;4.494;2023-06-22T04:18:12;29.73;;;12.73;;
21110;SDS011;10713;51.912;4.494;2023-06-22T04:20:38;31.58;;;11.93;;
21110;SDS011;10713;51.912;4.494;2023-06-22T04:23:04;23.40;;;11.05;;
21110;SDS011;10713;51.912;4.494;2023-06-22T04:25:29;26.20;;;12.25;;
21110;SDS011;10713;51.912;4.494;2023-06-22T04:27:54;25.95;;;10.88;;
21110;SDS011;10713;51.912;4.494;2023-06-22T04:30:20;27.88;;;11.88;;
21110;SDS011;10713;51.912;4.494;2023-06-22T04:32:45;24.98;;;11.25;;
21110;SDS011;10713;51.912;4.494;2023-06-22T04:35:11;28.50;;;11.88;;
21110;SDS011;10713;51.912;4.494;2023-06-22T04:37:37;20.67;;;10.23;;
21110;SDS011;10713;51.912;4.494;2023-06-22T04:40:02;24.90;;;10.85;;
21110;SDS011;10713;51.912;4.494;2023-06-22T04:42:30;24.27;;;10.80;;
21110;SDS011;10713;51.912;4.494;2023-06-22T04:44:57;21.60;;;11.18;;
21110;SDS011;10713;51.912;4.494;2023-06-22T04:47:22;22.80;;;10.68;;
21110;SDS011;10713;51.912;4.494;2023-06-22T04:49:47;25.38;;;11.10;;
21110;SDS011;10713;51.912;4.494;2023-06-22T04:52:13;23.23;;;10.52;;
21110;SDS011;10713;51.912;4.494;2023-06-22T04:54:45;20.15;;;10.57;;
21110;SDS011;10713;51.912;4.494;2023-06-22T04:57:12;19.00;;;10.13;;
21110;SDS011;10713;51.912;4.494;2023-06-22T04:59:38;23.55;;;10.73;;
21110;SDS011;10713;51.912;4.494;2023-06-22T05:02:06;27.00;;;10.77;;
21110;SDS011;10713;51.912;4.494;2023-06-22T05:04:32;21.75;;;8.88;;
21110;SDS011;10713;51.912;4.494;2023-06-22T05:07:00;23.20;;;11.77;;
21110;SDS011;10713;51.912;4.494;2023-06-22T05:09:27;22.95;;;11.05;;
21110;SDS011;10713;51.912;4.494;2023-06-22T05:11:53;21.33;;;10.55;;
21110;SDS011;10713;51.912;4.494;2023-06-22T05:14:18;19.65;;;9.40;;
21110;SDS011;10713;51.912;4.494;2023-06-22T05:16:44;21.42;;;11.25;;
21110;SDS011;10713;51.912;4.494;2023-06-22T05:19:10;20.70;;;10.02;;
21110;SDS011;10713;51.912;4.494;2023-06-22T05:21:36;20.77;;;10.90;;
21110;SDS011;10713;51.912;4.494;2023-06-22T05:24:01;20.75;;;10.85;;
21110;SDS011;10713;51.912;4.494;2023-06-22T05:26:28;22.50;;;10.60;;
21110;SDS011;10713;51.912;4.494;2023-06-22T05:28:54;19.95;;;10.10;;
21110;SDS011;10713;51.912;4.494;2023-06-22T05:31:19;20.23;;;9.73;;
21110;SDS011;10713;51.912;4.494;2023-06-22T05:33:45;18.80;;;9.48;;
21110;SDS011;10713;51.912;4.494;2023-06-22T05:36:11;20.50;;;9.68;;
21110;SDS011;10713;51.912;4.494;2023-06-22T05:38:38;20.05;;;9.65;;
21110;SDS011;10713;51.912;4.494;2023-06-22T05:41:04;20.70;;;10.35;;
21110;SDS011;10713;51.912;4.494;2023-06-22T05:43:29;21.40;;;10.57;;
21110;SDS011;10713;51.912;4.494;2023-06-22T05:45:55;20.23;;;9.18;;
21110;SDS011;10713;51.912;4.494;2023-06-22T05:48:20;16.70;;;9.18;;
21110;SDS011;10713;51.912;4.494;2023-06-22T05:50:45;19.55;;;9.55;;
21110;SDS011;10713;51.912;4.494;2023-06-22T05:53:11;16.00;;;8.68;;
21110;SDS011;10713;51.912;4.494;2023-06-22T05:55:36;17.10;;;8.52;;
21110;SDS011;10713;51.912;4.494;2023-06-22T05:58:02;14.95;;;7.93;;
21110;SDS011;10713;51.912;4.494;2023-06-22T06:00:28;13.55;;;7.85;;
21110;SDS011;10713;51.912;4.494;2023-06-22T06:02:54;13.70;;;7.78;;
21110;SDS011;10713;51.912;4.494;2023-06-22T06:05:19;15.93;;;7.38;;
21110;SDS011;10713;51.912;4.494;2023-06-22T06:07:45;16.63;;;7.73;;
21110;SDS011;10713;51.912;4.494;2023-06-22T06:10:11;16.67;;;7.50;;
21110;SDS011;10713;51.912;4.494;2023-06-22T06:12:36;13.23;;;7.05;;
21110;SDS011;10713;51.912;4.494;2023-06-22T06:15:02;11.63;;;6.45;;
21110;SDS011;10713;51.912;4.494;2023-06-22T06:17:28;12.55;;;6.78;;
21110;SDS011;10713;51.912;4.494;2023-06-22T06:19:54;14.63;;;7.30;;
21110;SDS011;10713;51.912;4.494;2023-06-22T06:22:19;18.17;;;7.07;;
21110;SDS011;10713;51.912;4.494;2023-06-22T06:24:46;14.07;;;7.50;;
21110;SDS011;10713;51.912;4.494;2023-06-22T06:27:12;12.98;;;6.10;;
21110;SDS011;10713;51.912;4.494;2023-06-22T06:29:38;15.23;;;7.05;;
21110;SDS011;10713;51.912;4.494;2023-06-22T06:32:04;13.57;;;7.45;;
21110;SDS011;10713;51.912;4.494;2023-06-22T06:34:29;13.60;;;7.43;;
21110;SDS011;10713;51.912;4.494;2023-06-22T06:36:54;13.27;;;6.88;;
21110;SDS011;10713;51.912;4.494;2023-06-22T06:39:20;15.32;;;8.38;;
21110;SDS011;10713;51.912;4.494;2023-06-22T06:41:45;14.88;;;7.63;;
21110;SDS011;10713;51.912;4.494;2023-06-22T06:44:11;14.75;;;6.85;;
21110;SDS011;10713;51.912;4.494;2023-06-22T06:46:36;14.60;;;7.60;;
21110;SDS011;10713;51.912;4.494;2023-06-22T06:49:02;13.40;;;6.97;;
21110;SDS011;10713;51.912;4.494;2023-06-22T06:51:28;12.50;;;6.72;;
21110;SDS011;10713;51.912;4.494;2023-06-22T06:53:54;15.57;;;7.47;;
21110;SDS011;10713;51.912;4.494;2023-06-22T06:56:19;13.10;;;6.13;;
21110;SDS011;10713;51.912;4.494;2023-06-22T06:58:45;12.63;;;5.93;;
21110;SDS011;10713;51.912;4.494;2023-06-22T07:01:11;14.13;;;6.25;;
21110;SDS011;10713;51.912;4.494;2023-06-22T07:03:37;11.85;;;5.35;;
21110;SDS011;10713;51.912;4.494;2023-06-22T07:06:03;14.63;;;6.82;;
21110;SDS011;10713;51.912;4.494;2023-06-22T07:08:28;10.77;;;6.10;;
21110;SDS011;10713;51.912;4.494;2023-06-22T07:10:54;13.27;;;6.65;;
21110;SDS011;10713;51.912;4.494;2023-06-22T07:13:19;11.85;;;6.15;;
21110;SDS011;10713;51.912;4.494;2023-06-22T07:15:45;9.93;;;5.93;;
21110;SDS011;10713;51.912;4.494;2023-06-22T07:18:10;12.32;;;6.60;;
21110;SDS011;10713;51.912;4.494;2023-06-22T07:20:35;12.02;;;6.38;;
21110;SDS011;10713;51.912;4.494;2023-06-22T07:23:01;11.07;;;5.90;;
21110;SDS011;10713;51.912;4.494;2023-06-22T07:25:26;10.15;;;5.53;;
21110;SDS011;10713;51.912;4.494;2023-06-22T07:30:31;11.70;;;6.50;;
21110;SDS011;10713;51.912;4.494;2023-06-22T07:32:58;10.45;;;6.07;;
21110;SDS011;10713;51.912;4.494;2023-06-22T07:35:28;8.68;;;4.85;;
21110;SDS011;10713;51.912;4.494;2023-06-22T07:37:54;11.23;;;5.43;;
21110;SDS011;10713;51.912;4.494;2023-06-22T07:40:19;9.10;;;5.50;;
21110;SDS011;10713;51.912;4.494;2023-06-22T07:42:45;8.70;;;4.57;;
21110;SDS011;10713;51.912;4.494;2023-06-22T07:45:13;9.90;;;5.45;;
21110;SDS011;10713;51.912;4.494;2023-06-22T07:47:38;8.82;;;5.35;;
21110;SDS011;10713;51.912;4.494;2023-06-22T07:50:04;10.55;;;6.13;;
21110;SDS011;10713;51.912;4.494;2023-06-22T07:52:30;10.40;;;6.10;;
21110;SDS011;10713;51.912;4.494;2023-06-22T07:54:56;8.00;;;5.50;;
21110;SDS011;10713;51.912;4.494;2023-06-22T07:57:22;7.97;;;4.75;;
21110;SDS011;10713;51.912;4.494;2023-06-22T07:59:47;9.48;;;4.60;;
21110;SDS011;10713;51.912;4.494;2023-06-22T08:02:13;7.63;;;4.57;;
21110;SDS011;10713;51.912;4.494;2023-06-22T08:04:38;8.10;;;4.40;;
21110;SDS011;10713;51.912;4.494;2023-06-22T08:07:05;5.93;;;3.88;;
21110;SDS011;10713;51.912;4.494;2023-06-22T08:09:31;6.65;;;3.65;;
21110;SDS011;10713;51.912;4.494;2023-06-22T08:11:57;4.50;;;2.85;;
21110;SDS011;10713;51.912;4.494;2023-06-22T08:14:24;4.93;;;3.00;;
21110;SDS011;10713;51.912;4.494;2023-06-22T08:16:50;6.10;;;2.90;;
21110;SDS011;10713;51.912;4.494;2023-06-22T08:19:16;5.63;;;2.30;;
21110;SDS011;10713;51.912;4.494;2023-06-22T08:21:42;3.22;;;2.00;;
21110;SDS011;10713;51.912;4.494;2023-06-22T08:24:07;4.90;;;2.60;;
21110;SDS011;10713;51.912;4.494;2023-06-22T08:26:33;7.03;;;2.42;;
21110;SDS011;10713;51.912;4.494;2023-06-22T08:29:02;3.55;;;1.92;;
21110;SDS011;10713;51.912;4.494;2023-06-22T08:31:28;4.47;;;2.00;;
21110;SDS011;10713;51.912;4.494;2023-06-22T08:33:53;3.33;;;1.90;;
21110;SDS011;10713;51.912;4.494;2023-06-22T08:36:18;3.07;;;2.10;;
21110;SDS011;10713;51.912;4.494;2023-06-22T08:38:44;4.20;;;1.77;;
21110;SDS011;10713;51.912;4.494;2023-06-22T08:41:10;4.50;;;2.22;;
21110;SDS011;10713;51.912;4.494;2023-06-22T08:43:35;4.22;;;2.40;;
21110;SDS011;10713;51.912;4.494;2023-06-22T08:46:01;3.67;;;2.33;;
21110;SDS011;10713;51.912;4.494;2023-06-22T08:48:27;5.38;;;2.60;;
21110;SDS011;10713;51.912;4.494;2023-06-22T08:50:53;5.10;;;2.15;;
21110;SDS011;10713;51.912;4.494;2023-06-22T08:53:18;3.83;;;2.35;;
21110;SDS011;10713;51.912;4.494;2023-06-22T08:55:44;3.63;;;2.50;;
21110;SDS011;10713;51.912;4.494;2023-06-22T08:58:10;6.00;;;3.42;;
21110;SDS011;10713;51.912;4.494;2023-06-22T09:00:35;3.92;;;2.50;;
21110;SDS011;10713;51.912;4.494;2023-06-22T09:03:00;4.70;;;2.42;;
21110;SDS011;10713;51.912;4.494;2023-06-22T09:05:26;5.43;;;3.17;;
21110;SDS011;10713;51.912;4.494;2023-06-22T09:07:51;5.22;;;3.47;;
21110;SDS011;10713;51.912;4.494;2023-06-22T09:10:17;3.75;;;2.78;;
21110;SDS011;10713;51.912;4.494;2023-06-22T09:12:43;5.45;;;3.05;;
21110;SDS011;10713;51.912;4.494;2023-06-22T09:15:09;9.10;;;4.57;;
21110;SDS011;10713;51.912;4.494;2023-06-22T09:17:35;8.13;;;3.67;;
21110;SDS011;10713;51.912;4.494;2023-06-22T09:20:01;6.35;;;3.92;;
21110;SDS011;10713;51.912;4.494;2023-06-22T09:22:27;9.30;;;5.18;;
21110;SDS011;10713;51.912;4.494;2023-06-22T09:24:54;11.57;;;5.75;;
21110;SDS011;10713;51.912;4.494;2023-06-22T09:27:20;12.60;;;5.97;;
21110;SDS011;10713;51.912;4.494;2023-06-22T09:29:46;7.97;;;5.20;;
21110;SDS011;10713;51.912;4.494;2023-06-22T09:32:11;13.00;;;6.13;;
21110;SDS011;10713;51.912;4.494;2023-06-22T09:34:37;11.75;;;5.68;;
21110;SDS011;10713;51.912;4.494;2023-06-22T09:37:02;8.50;;;5.50;;
21110;SDS011;10713;51.912;4.494;2023-06-22T09:39:28;9.23;;;5.95;;
21110;SDS011;10713;51.912;4.494;2023-06-22T09:41:53;11.87;;;6.90;;
21110;SDS011;10713;51.912;4.494;2023-06-22T09:44:18;11.43;;;6.45;;
21110;SDS011;10713;51.912;4.494;2023-06-22T09:46:43;8.93;;;4.97;;
21110;SDS011;10713;51.912;4.494;2023-06-22T09:49:09;8.27;;;5.28;;
21110;SDS011;10713;51.912;4.494;2023-06-22T09:51:34;10.10;;;6.67;;
21110;SDS011;10713;51.912;4.494;2023-06-22T09:53:59;12.53;;;6.90;;
21110;SDS011;10713;51.912;4.494;2023-06-22T09:56:25;9.67;;;6.13;;
21110;SDS011;10713;51.912;4.494;2023-06-22T09:58:53;15.35;;;6.88;;
21110;SDS011;10713;51.912;4.494;2023-06-22T10:01:18;13.95;;;8.38;;
21110;SDS011;10713;51.912;4.494;2023-06-22T10:03:43;14.90;;;8.15;;
21110;SDS011;10713;51.912;4.494;2023-06-22T10:06:09;11.95;;;6.95;;
21110;SDS011;10713;51.912;4.494;2023-06-22T10:08:34;11.57;;;7.07;;
21110;SDS011;10713;51.912;4.494;2023-06-22T10:11:01;11.23;;;6.63;;
21110;SDS011;10713;51.912;4.494;2023-06-22T10:13:26;15.80;;;7.88;;
21110;SDS011;10713;51.912;4.494;2023-06-22T10:15:51;13.60;;;6.78;;
21110;SDS011;10713;51.912;4.494;2023-06-22T10:18:18;12.77;;;6.35;;
21110;SDS011;10713;51.912;4.494;2023-06-22T10:20:43;11.18;;;6.90;;
21110;SDS011;10713;51.912;4.494;2023-06-22T10:23:15;12.63;;;7.35;;
21110;SDS011;10713;51.912;4.494;2023-06-22T10:25:40;13.70;;;7.60;;
21110;SDS011;10713;51.912;4.494;2023-06-22T10:28:05;11.07;;;6.70;;
21110;SDS011;10713;51.912;4.494;2023-06-22T10:30:32;12.65;;;6.53;;
21110;SDS011;10713;51.912;4.494;2023-06-22T10:32:57;13.02;;;6.03;;
21110;SDS011;10713;51.912;4.494;2023-06-22T10:35:23;7.38;;;4.95;;
21110;SDS011;10713;51.912;4.494;2023-06-22T10:37:48;9.27;;;4.80;;
21110;SDS011;10713;51.912;4.494;2023-06-22T10:40:15;13.55;;;6.45;;
21110;SDS011;10713;51.912;4.494;2023-06-22T10:42:41;11.32;;;6.53;;
21110;SDS011;10713;51.912;4.494;2023-06-22T10:45:08;14.57;;;6.25;;
21110;SDS011;10713;51.912;4.494;2023-06-22T10:47:34;12.68;;;7.18;;
21110;SDS011;10713;51.912;4.494;2023-06-22T10:50:01;13.10;;;6.78;;
21110;SDS011;10713;51.912;4.494;2023-06-22T10:52:26;10.68;;;6.70;;
21110;SDS011;10713;51.912;4.494;2023-06-22T10:54:52;10.25;;;6.63;;
21110;SDS011;10713;51.912;4.494;2023-06-22T10:57:17;11.65;;;6.50;;
21110;SDS011;10713;51.912;4.494;2023-06-22T10:59:43;11.50;;;6.82;;
21110;SDS011;10713;51.912;4.494;2023-06-22T11:02:08;14.60;;;7.60;;
21110;SDS011;10713;51.912;4.494;2023-06-22T11:04:34;11.02;;;7.25;;
21110;SDS011;10713;51.912;4.494;2023-06-22T11:06:59;12.75;;;7.22;;
21110;SDS011;10713;51.912;4.494;2023-06-22T11:09:24;11.60;;;6.65;;
21110;SDS011;10713;51.912;4.494;2023-06-22T11:11:51;12.55;;;6.85;;
21110;SDS011;10713;51.912;4.494;2023-06-22T11:14:18;9.13;;;6.47;;
21110;SDS011;10713;51.912;4.494;2023-06-22T11:16:44;13.13;;;7.32;;
21110;SDS011;10713;51.912;4.494;2023-06-22T11:19:09;15.20;;;8.10;;
21110;SDS011;10713;51.912;4.494;2023-06-22T11:21:34;13.88;;;8.43;;
21110;SDS011;10713;51.912;4.494;2023-06-22T11:24:00;14.15;;;8.15;;
21110;SDS011;10713;51.912;4.494;2023-06-22T11:26:25;14.52;;;9.00;;
21110;SDS011;10713;51.912;4.494;2023-06-22T11:28:53;13.77;;;7.40;;
21110;SDS011;10713;51.912;4.494;2023-06-22T11:31:19;13.77;;;7.78;;
21110;SDS011;10713;51.912;4.494;2023-06-22T11:33:44;13.57;;;8.23;;
21110;SDS011;10713;51.912;4.494;2023-06-22T11:36:11;12.50;;;7.10;;
21110;SDS011;10713;51.912;4.494;2023-06-22T11:38:37;10.75;;;6.50;;
21110;SDS011;10713;51.912;4.494;2023-06-22T11:41:05;12.77;;;7.72;;
21110;SDS011;10713;51.912;4.494;2023-06-22T11:43:30;12.48;;;7.85;;
21110;SDS011;10713;51.912;4.494;2023-06-22T11:45:56;13.10;;;8.05;;
21110;SDS011;10713;51.912;4.494;2023-06-22T11:48:22;15.00;;;8.15;;
21110;SDS011;10713;51.912;4.494;2023-06-22T11:50:51;16.55;;;9.32;;
21110;SDS011;10713;51.912;4.494;2023-06-22T11:53:16;14.93;;;6.80;;
21110;SDS011;10713;51.912;4.494;2023-06-22T11:55:42;17.83;;;10.00;;
21110;SDS011;10713;51.912;4.494;2023-06-22T11:58:08;15.48;;;9.15;;
21110;SDS011;10713;51.912;4.494;2023-06-22T12:00:34;14.85;;;10.35;;
21110;SDS011;10713;51.912;4.494;2023-06-22T12:02:59;16.30;;;10.55;;
21110;SDS011;10713;51.912;4.494;2023-06-22T12:05:25;13.80;;;8.18;;
21110;SDS011;10713;51.912;4.494;2023-06-22T12:07:52;13.75;;;8.57;;
21110;SDS011;10713;51.912;4.494;2023-06-22T12:10:18;16.63;;;8.90;;
21110;SDS011;10713;51.912;4.494;2023-06-22T12:12:43;19.75;;;10.63;;
21110;SDS011;10713;51.912;4.494;2023-06-22T12:15:09;20.17;;;10.35;;
21110;SDS011;10713;51.912;4.494;2023-06-22T12:17:35;19.65;;;10.68;;
21110;SDS011;10713;51.912;4.494;2023-06-22T12:20:00;20.58;;;11.13;;
21110;SDS011;10713;51.912;4.494;2023-06-22T12:22:27;17.35;;;10.85;;
21110;SDS011;10713;51.912;4.494;2023-06-22T12:24:52;22.02;;;11.00;;
21110;SDS011;10713;51.912;4.494;2023-06-22T12:27:17;15.38;;;9.82;;
21110;SDS011;10713;51.912;4.494;2023-06-22T12:29:45;17.35;;;10.07;;
21110;SDS011;10713;51.912;4.494;2023-06-22T12:32:11;18.02;;;9.63;;
21110;SDS011;10713;51.912;4.494;2023-06-22T12:34:38;11.90;;;7.88;;
21110;SDS011;10713;51.912;4.494;2023-06-22T12:37:03;10.77;;;7.22;;
21110;SDS011;10713;51.912;4.494;2023-06-22T12:39:30;19.90;;;10.77;;
21110;SDS011;10713;51.912;4.494;2023-06-22T12:41:56;18.90;;;10.18;;
21110;SDS011;10713;51.912;4.494;2023-06-22T12:44:21;15.93;;;8.98;;
21110;SDS011;10713;51.912;4.494;2023-06-22T12:46:46;15.55;;;9.43;;
21110;SDS011;10713;51.912;4.494;2023-06-22T12:49:12;16.23;;;8.43;;
21110;SDS011;10713;51.912;4.494;2023-06-22T12:51:40;18.38;;;9.98;;
21110;SDS011;10713;51.912;4.494;2023-06-22T12:54:10;19.25;;;10.75;;
21110;SDS011;10713;51.912;4.494;2023-06-22T12:56:36;15.90;;;9.45;;
21110;SDS011;10713;51.912;4.494;2023-06-22T12:59:03;15.88;;;9.43;;
21110;SDS011;10713;51.912;4.494;2023-06-22T13:01:29;19.10;;;10.90;;
21110;SDS011;10713;51.912;4.494;2023-06-22T13:03:55;20.38;;;10.85;;
21110;SDS011;10713;51.912;4.494;2023-06-22T13:06:21;24.63;;;11.68;;
21110;SDS011;10713;51.912;4.494;2023-06-22T13:08:46;18.88;;;10.90;;
21110;SDS011;10713;51.912;4.494;2023-06-22T13:11:11;21.05;;;10.75;;
21110;SDS011;10713;51.912;4.494;2023-06-22T13:13:37;20.15;;;11.13;;
21110;SDS011;10713;51.912;4.494;2023-06-22T13:16:03;29.50;;;14.13;;
21110;SDS011;10713;51.912;4.494;2023-06-22T13:18:28;25.55;;;13.02;;
21110;SDS011;10713;51.912;4.494;2023-06-22T13:20:53;20.80;;;12.07;;
21110;SDS011;10713;51.912;4.494;2023-06-22T13:23:20;29.60;;;14.55;;
21110;SDS011;10713;51.912;4.494;2023-06-22T13:25:46;21.92;;;13.52;;
21110;SDS011;10713;51.912;4.494;2023-06-22T13:28:11;24.67;;;13.15;;
21110;SDS011;10713;51.912;4.494;2023-06-22T13:30:38;25.17;;;13.13;;
21110;SDS011;10713;51.912;4.494;2023-06-22T13:33:05;22.13;;;12.07;;
21110;SDS011;10713;51.912;4.494;2023-06-22T13:35:30;23.58;;;13.30;;
21110;SDS011;10713;51.912;4.494;2023-06-22T13:37:55;26.17;;;13.57;;
21110;SDS011;10713;51.912;4.494;2023-06-22T13:40:21;27.15;;;14.35;;
21110;SDS011;10713;51.912;4.494;2023-06-22T13:42:46;29.73;;;14.45;;
21110;SDS011;10713;51.912;4.494;2023-06-22T13:45:12;25.33;;;15.40;;
21110;SDS011;10713;51.912;4.494;2023-06-22T13:47:37;19.50;;;12.05;;
21110;SDS011;10713;51.912;4.494;2023-06-22T13:50:02;31.55;;;17.48;;
21110;SDS011;10713;51.912;4.494;2023-06-22T13:52:28;35.47;;;19.20;;
21110;SDS011;10713;51.912;4.494;2023-06-22T13:54:53;32.00;;;16.80;;
21110;SDS011;10713;51.912;4.494;2023-06-22T13:57:19;33.13;;;17.40;;
21110;SDS011;10713;51.912;4.494;2023-06-22T13:59:44;28.83;;;16.95;;
21110;SDS011;10713;51.912;4.494;2023-06-22T14:02:10;29.08;;;16.27;;
21110;SDS011;10713;51.912;4.494;2023-06-22T14:04:35;32.67;;;17.23;;
21110;SDS011;10713;51.912;4.494;2023-06-22T14:07:00;31.33;;;15.90;;
21110;SDS011;10713;51.912;4.494;2023-06-22T14:09:26;29.52;;;16.02;;
21110;SDS011;10713;51.912;4.494;2023-06-22T14:11:51;30.13;;;15.38;;
21110;SDS011;10713;51.912;4.494;2023-06-22T14:14:18;27.15;;;15.20;;
21110;SDS011;10713;51.912;4.494;2023-06-22T14:16:44;28.88;;;15.73;;
21110;SDS011;10713;51.912;4.494;2023-06-22T14:19:09;32.28;;;17.48;;
21110;SDS011;10713;51.912;4.494;2023-06-22T14:21:34;38.20;;;18.55;;
21110;SDS011;10713;51.912;4.494;2023-06-22T14:24:00;35.78;;;18.52;;
21110;SDS011;10713;51.912;4.494;2023-06-22T14:26:25;46.17;;;19.80;;
21110;SDS011;10713;51.912;4.494;2023-06-22T14:28:50;38.65;;;19.27;;
21110;SDS011;10713;51.912;4.494;2023-06-22T14:31:17;31.60;;;15.57;;
21110;SDS011;10713;51.912;4.494;2023-06-22T14:33:45;32.53;;;17.00;;
21110;SDS011;10713;51.912;4.494;2023-06-22T14:36:11;32.60;;;16.80;;
21110;SDS011;10713;51.912;4.494;2023-06-22T14:38:37;29.95;;;17.33;;